Time;durP1;ratioP1;P1;durP2;ratioP2;P2;SDS_P1;SDS_P2;PMS_P1;PMS_P2;Temp;Humidity;BMP_temperature;BMP_pressure;BME280_temperature;BME280_humidity;BME280_pressure;Samples;Min_cycle;Max_cycle;Signal;HPM_P1;HPM_P2
2022/02/03 00:02:25;;;;;;;9.00;5.20;;;;;;;-0.35;91.38;96449.94;101242;1270;3121298;-84
2022/02/03 00:05:08;;;;;;;10.90;5.90;;;;;;;-0.38;91.25;96442.48;100772;1271;4649454;-85
2022/02/03 00:07:57;;;;;;;6.70;4.20;;;;;;;-0.40;91.13;96453.59;95397;1271;5237084;-84
2022/02/03 00:10:47;;;;;;;9.80;5.20;;;;;;;-0.41;91.38;96460.53;100070;1271;2269178;-84
2022/02/03 00:22:38;;;;;;;11.90;6.00;;;;;;;-0.44;91.28;96474.05;104915;1274;1973744;-85
2022/02/03 00:25:16;;;;;;;7.00;4.10;;;;;;;-0.48;91.23;96484.25;103424;1273;2125938;-85
2022/02/03 00:28:04;;;;;;;12.80;5.60;;;;;;;-0.49;91.24;96481.14;98642;1273;5511362;-85
2022/02/03 00:31:05;;;;;;;8.30;5.50;;;;;;;-0.51;90.97;96491.49;86269;1274;5321145;-85
2022/02/03 00:33:41;;;;;;;8.30;5.50;;;;;;;-0.53;91.18;96498.19;91805;1275;5117462;-85
2022/02/03 00:37:09;;;;;;;10.40;5.70;;;;;;;-0.48;91.00;96508.09;95483;1274;5475119;-85
2022/02/03 00:49:27;;;;;;;8.70;5.10;;;;;;;-0.48;91.06;96522.67;85527;1274;9188406;-85
2022/02/03 00:52:14;;;;;;;9.00;4.70;;;;;;;-0.46;91.06;96528.62;93437;1274;5513439;-84
2022/02/03 00:55:00;;;;;;;10.00;4.90;;;;;;;-0.49;91.04;96531.36;86785;1271;6428083;-85
2022/02/03 01:00:57;;;;;;;10.10;5.20;;;;;;;-0.47;90.89;96534.85;74638;1275;7948263;-85
2022/02/03 01:03:43;;;;;;;10.10;5.20;;;;;;;-0.47;91.00;96526.63;80194;1274;7008605;-85
2022/02/03 01:06:30;;;;;;;8.40;4.90;;;;;;;-0.46;90.89;96525.54;81655;1274;6875669;-85
2022/02/03 01:09:17;;;;;;;7.40;4.00;;;;;;;-0.40;90.81;96531.65;74074;1272;8490937;-85
2022/02/03 01:12:10;;;;;;;7.50;4.10;;;;;;;-0.38;90.93;96535.86;73637;1278;6271908;-84
2022/02/03 01:15:03;;;;;;;8.30;4.30;;;;;;;-0.40;90.63;96530.88;80344;1277;6772688;-85
2022/02/03 01:18:18;;;;;;;7.60;3.80;;;;;;;-0.45;90.75;96535.03;77841;1281;7741921;-85
2022/02/03 01:45:27;;;;;;;3.20;2.80;;;;;;;-0.43;90.96;96547.48;65982;1271;7813528;-85
2022/02/03 01:48:37;;;;;;;5.90;3.00;;;;;;;-0.54;91.07;96549.11;85567;1274;5511541;-85
2022/02/03 01:51:48;;;;;;;4.50;2.40;;;;;;;-0.56;91.78;96568.70;83548;1278;6561872;-85
2022/02/03 01:54:45;;;;;;;;;;;;;;;;;;;;;
2022/02/03 01:57:38;;;;;;;3.80;2.10;;;;;;;-0.69;92.46;96578.23;85984;1273;5495929;-85
2022/02/03 02:00:21;;;;;;;3.50;2.10;;;;;;;-0.77;93.11;96573.37;87576;1274;5576230;-85
2022/02/03 02:03:15;;;;;;;1.70;1.20;;;;;;;-0.85;93.52;96583.54;77585;1274;5504115;-84
2022/02/03 02:06:27;;;;;;;1.90;1.30;;;;;;;-0.87;93.64;96585.38;95392;1274;5165570;-85
2022/02/03 02:09:15;;;;;;;1.20;1.10;;;;;;;-0.87;93.84;96586.62;93260;1274;4692957;-84
2022/02/03 02:12:19;;;;;;;1.40;1.20;;;;;;;-0.87;93.97;96595.02;95738;1271;5157872;-85
2022/02/03 02:18:52;;;;;;;2.70;1.90;;;;;;;-0.94;94.51;96602.03;90951;1273;6754806;-85
2022/02/03 02:37:14;;;;;;;6.40;2.50;;;;;;;-0.99;95.61;96600.12;103234;1273;2113169;-86
2022/02/03 02:40:41;;;;;;;2.20;1.90;;;;;;;-0.96;95.84;96608.34;95816;1274;4559565;-84
2022/02/03 02:43:32;;;;;;;6.00;2.10;;;;;;;-0.99;95.84;96612.45;97197;1273;4426784;-84
2022/02/03 02:46:14;;;;;;;3.20;1.90;;;;;;;-1.02;95.99;96614.50;97259;1274;4640415;-84
2022/02/03 02:49:12;;;;;;;2.40;1.90;;;;;;;-1.03;96.28;96628.67;105288;1274;1517102;-84
2022/02/03 02:51:57;;;;;;;3.70;2.10;;;;;;;-1.06;95.97;96621.73;104806;1274;1320423;-84
2022/02/03 02:55:00;;;;;;;3.70;2.30;;;;;;;-1.06;95.84;96622.99;101087;1273;6303834;-84
2022/02/03 02:58:01;;;;;;;3.30;2.80;;;;;;;-1.06;95.71;96622.27;102752;1274;2603507;-82
2022/02/03 03:04:24;;;;;;;3.60;2.20;;;;;;;-1.05;95.81;96640.61;104914;1274;1901666;-84
2022/02/03 03:30:48;;;;;;;3.10;2.60;;;;;;;-1.07;94.01;96671.27;105063;1274;2466319;-81
2022/02/03 03:33:27;;;;;;;2.90;2.30;;;;;;;-1.09;93.94;96670.00;105125;1273;2109611;-84
2022/02/03 03:36:02;;;;;;;4.10;2.60;;;;;;;-1.15;93.89;96679.16;105664;1271;1657420;-84
2022/02/03 03:38:47;;;;;;;6.80;3.30;;;;;;;-1.15;94.14;96689.28;104841;1273;2419816;-84
2022/02/03 03:41:21;;;;;;;6.40;3.70;;;;;;;-1.16;94.21;96688.80;102274;1273;2418879;-84
2022/02/03 03:44:07;;;;;;;7.40;3.20;;;;;;;-1.18;94.39;96688.10;103783;1274;1934826;-84
2022/02/03 03:46:55;;;;;;;5.30;3.30;;;;;;;-1.23;94.28;96696.80;105663;1274;1383658;-85
2022/02/03 03:49:39;;;;;;;5.10;3.40;;;;;;;-1.27;94.40;96697.35;106759;1272;180765;-84
2022/02/03 03:52:28;;;;;;;6.20;3.40;;;;;;;-1.27;94.32;96705.84;104905;1272;2128658;-85
2022/02/03 03:55:13;;;;;;;4.60;2.70;;;;;;;-1.29;94.12;96715.27;100772;1273;5079180;-84
2022/02/03 03:58:07;;;;;;;5.70;3.20;;;;;;;-1.30;94.27;96724.82;96280;1273;4649339;-84
2022/02/03 04:28:37;;;;;;;6.80;4.60;;;;;;;-1.33;94.32;96720.27;104526;1273;1725247;-84
2022/02/03 04:44:05;;;;;;;6.70;3.10;;;;;;;-1.59;93.18;96773.45;104076;1271;3205564;-85
2022/02/03 04:57:11;;;;;;;2.10;1.70;;;;;;;-1.68;92.01;96788.47;102579;1270;2548473;-84
2022/02/03 05:00:41;;;;;;;4.70;2.70;;;;;;;-1.68;91.72;96801.14;106475;1271;175887;-84
2022/02/03 05:04:05;;;;;;;6.20;4.00;;;;;;;-1.69;91.38;96805.06;106659;1271;178185;-84
2022/02/03 05:07:15;;;;;;;6.00;3.20;;;;;;;-1.78;91.39;96806.10;105431;1271;1737494;-83
2022/02/03 05:10:14;;;;;;;9.50;4.40;;;;;;;-1.86;91.83;96810.31;101185;1271;2066505;-84
2022/02/03 05:13:29;;;;;;;4.80;3.60;;;;;;;-1.92;92.15;96816.54;105882;1270;1341660;-84
2022/02/03 05:17:02;;;;;;;6.40;4.20;;;;;;;-1.95;92.56;96830.44;105682;1271;1958170;-84
2022/02/03 05:33:19;;;;;;;5.50;3.70;;;;;;;-1.98;92.41;96857.27;107055;1269;173096;-84
2022/02/03 05:42:51;;;;;;;4.60;2.80;;;;;;;-1.98;91.80;96869.70;101095;1268;2653413;-85
2022/02/03 06:05:49;;;;;;;3.90;2.40;;;;;;;-1.97;89.37;96892.09;101481;1271;2730451;-84
2022/02/03 06:08:26;;;;;;;4.10;1.70;;;;;;;-1.98;89.06;96899.04;100161;1270;4634860;-85
2022/02/03 06:14:09;;;;;;;4.40;2.20;;;;;;;-2.01;88.92;96907.33;97044;1271;4540470;-84
2022/02/03 06:17:01;;;;;;;3.80;2.10;;;;;;;-2.02;88.86;96913.68;96749;1271;5162795;-84
2022/02/03 06:22:43;;;;;;;3.70;2.00;;;;;;;-1.99;88.82;96920.64;103735;1271;2052524;-84
2022/02/03 06:28:13;;;;;;;7.90;2.20;;;;;;;-2.04;88.34;96917.59;93731;1271;5061086;-84
2022/02/03 06:30:59;;;;;;;2.90;2.10;;;;;;;-2.03;88.30;96930.50;96304;1270;4561878;-85
2022/02/03 06:33:30;;;;;;;4.00;1.90;;;;;;;-2.03;88.19;96928.94;99023;1270;5454881;-85
2022/02/03 06:36:24;;;;;;;6.00;2.80;;;;;;;-2.02;88.12;96931.81;99131;1270;4597217;-82
2022/02/03 06:38:59;;;;;;;3.10;2.60;;;;;;;-2.01;88.22;96941.73;94752;1270;5311478;-84
2022/02/03 06:41:35;;;;;;;3.70;1.60;;;;;;;-2.01;87.97;96948.92;99773;1268;5187150;-84
2022/02/03 06:44:20;;;;;;;1.50;1.40;;;;;;;-2.02;87.43;96948.77;94043;1268;5538177;-85
2022/02/03 06:47:09;;;;;;;3.30;2.10;;;;;;;-2.02;86.67;96956.52;94099;1270;5413516;-84
2022/02/03 06:49:56;;;;;;;3.00;2.00;;;;;;;-2.03;86.07;96966.63;99896;1270;5180002;-84
2022/02/03 06:52:51;;;;;;;1.70;1.30;;;;;;;-2.02;85.80;96972.74;105716;1271;1432920;-84
2022/02/03 06:55:41;;;;;;;4.10;2.20;;;;;;;-2.02;85.47;96983.89;99180;1270;4590421;-84
2022/02/03 06:58:22;;;;;;;2.20;1.40;;;;;;;-2.03;85.33;96992.48;92628;1271;6481011;-84
2022/02/03 07:01:03;;;;;;;3.10;1.80;;;;;;;-2.04;85.05;96989.80;92068;1270;5182003;-84
2022/02/03 07:03:42;;;;;;;2.20;1.50;;;;;;;-2.07;85.22;96995.77;88333;1270;5258115;-85
2022/02/03 07:06:23;;;;;;;3.30;1.90;;;;;;;-2.04;85.42;97000.91;89823;1273;6945725;-84
2022/02/03 07:09:09;;;;;;;2.10;1.60;;;;;;;-2.05;85.26;97003.59;96525;1270;7080688;-83
2022/02/03 07:12:16;;;;;;;2.60;1.60;;;;;;;-2.08;85.54;97000.69;95471;1270;5365145;-84
2022/02/03 07:14:51;;;;;;;1.70;1.40;;;;;;;-2.10;85.11;97000.24;85002;1270;5504534;-84
2022/02/03 07:17:33;;;;;;;2.00;1.50;;;;;;;-2.12;85.33;97004.77;92784;1271;4406600;-85
2022/02/03 07:20:17;;;;;;;1.80;1.20;;;;;;;-2.13;85.15;97006.86;101358;1271;5186357;-84
2022/02/03 07:22:54;;;;;;;2.60;1.50;;;;;;;-2.13;84.92;97010.27;87455;1270;6343207;-84
2022/02/03 07:25:36;;;;;;;2.80;1.60;;;;;;;-2.09;85.09;97014.06;91108;1270;5522342;-85
2022/02/03 07:28:14;;;;;;;1.60;1.30;;;;;;;-2.07;84.86;97004.80;90697;1270;5703339;-84
2022/02/03 07:30:56;;;;;;;1.50;1.40;;;;;;;-2.05;84.60;97012.45;94469;1271;5408851;-84
2022/02/03 07:33:32;;;;;;;2.10;1.70;;;;;;;-2.04;84.52;97014.81;97684;1270;5558563;-84
2022/02/03 07:36:21;;;;;;;2.10;1.70;;;;;;;-2.04;84.72;97015.33;84939;1271;5174442;-85
2022/02/03 07:38:58;;;;;;;4.10;2.20;;;;;;;-1.98;84.93;97018.34;87072;1272;5466640;-85
2022/02/03 07:41:33;;;;;;;2.10;1.40;;;;;;;-1.93;84.74;97018.14;95216;1271;4534050;-84
2022/02/03 07:44:22;;;;;;;3.40;2.10;;;;;;;-1.95;84.51;97018.21;86290;1271;6834889;-85
2022/02/03 07:47:10;;;;;;;3.80;2.70;;;;;;;-1.98;84.52;97025.09;93645;1271;4351538;-85
2022/02/03 07:49:56;;;;;;;4.80;2.40;;;;;;;-1.98;84.75;97017.16;87221;1270;5408225;-85
2022/02/03 07:52:38;;;;;;;7.00;2.90;;;;;;;-2.01;84.87;97021.48;100186;1271;5570693;-85
2022/02/03 07:55:29;;;;;;;5.10;3.10;;;;;;;-1.97;85.09;97031.09;99162;1271;4744723;-84
2022/02/03 07:58:10;;;;;;;5.50;2.80;;;;;;;-1.93;85.45;97026.74;105581;1270;1647584;-85
2022/02/03 08:01:06;;;;;;;2.50;1.50;;;;;;;-1.89;85.14;97027.95;94413;1273;7171525;-85
2022/02/03 08:03:45;;;;;;;2.50;1.50;;;;;;;-1.85;84.32;97030.18;92626;1270;5230200;-84
2022/02/03 08:06:28;;;;;;;2.40;1.80;;;;;;;-1.76;83.14;97040.45;89781;1270;5199055;-85
2022/02/03 08:12:09;;;;;;;2.80;1.50;;;;;;;-1.70;82.63;97048.02;95187;1270;5554097;-84
2022/02/03 08:14:53;;;;;;;2.20;1.40;;;;;;;-1.73;82.39;97045.90;95120;1270;6447059;-84
2022/02/03 08:17:34;;;;;;;4.70;2.20;;;;;;;-1.75;82.51;97046.40;94955;1270;5336521;-85
2022/02/03 08:20:34;;;;;;;8.50;2.90;;;;;;;-1.67;82.92;97049.73;95494;1271;6609111;-85
2022/02/03 08:23:39;;;;;;;8.50;2.90;;;;;;;-1.58;82.72;97048.23;96254;1270;5548617;-85
2022/02/03 08:26:42;;;;;;;8.10;4.20;;;;;;;-1.53;82.49;97046.55;94369;1270;5405107;-85
2022/02/03 08:32:16;;;;;;;4.00;2.70;;;;;;;-1.47;82.45;97032.30;101190;1270;2729892;-85
2022/02/03 08:35:18;;;;;;;4.20;2.80;;;;;;;-1.50;82.18;97028.85;93833;1270;5337694;-84
2022/02/03 08:38:05;;;;;;;5.30;2.80;;;;;;;-1.53;82.42;97028.64;102122;1270;2142430;-85
2022/02/03 08:41:08;;;;;;;4.10;2.60;;;;;;;-1.57;82.22;97021.72;99269;1270;2556587;-85
2022/02/03 08:44:01;;;;;;;6.90;3.50;;;;;;;-1.51;82.69;97015.05;103035;1270;3072455;-85
2022/02/03 08:46:33;;;;;;;5.70;2.60;;;;;;;-1.46;82.85;97008.71;98657;1270;4663091;-85
2022/02/03 08:49:22;;;;;;;6.00;4.00;;;;;;;-1.41;82.97;97009.20;99086;1270;4546112;-84
2022/02/03 08:52:05;;;;;;;16.50;9.10;;;;;;;-1.30;83.29;97021.14;103036;1270;1708204;-85
2022/02/03 08:54:50;;;;;;;6.90;3.30;;;;;;;-1.26;82.99;97014.49;101994;1270;2669973;-84
2022/02/03 08:57:38;;;;;;;10.10;4.00;;;;;;;-1.27;82.83;97014.69;97101;1270;5125119;-85
2022/02/03 09:53:16;;;;;;;8.40;3.50;;;;;;;0.03;81.52;97008.94;87718;1270;5250827;-84
2022/02/03 09:56:25;;;;;;;6.50;3.30;;;;;;;0.25;81.27;97007.10;100022;1270;5421213;-83
2022/02/03 09:59:11;;;;;;;4.70;2.50;;;;;;;0.35;80.82;96996.19;103945;1270;3512010;-83
2022/02/03 10:01:52;;;;;;;6.00;3.50;;;;;;;0.52;80.76;96993.58;98842;1270;4541062;-84
2022/02/03 10:04:45;;;;;;;5.10;3.00;;;;;;;0.51;80.11;96987.80;102892;1271;5070396;-83
2022/02/03 10:07:21;;;;;;;7.60;3.50;;;;;;;0.54;79.74;96990.11;102602;1270;5294454;-84
2022/02/03 10:09:57;;;;;;;5.80;2.70;;;;;;;0.63;79.50;96985.92;104690;1270;1851207;-83
2022/02/03 10:12:38;;;;;;;8.60;3.30;;;;;;;0.64;79.20;96984.71;104039;1270;2407213;-83
2022/02/03 10:15:14;;;;;;;7.30;3.00;;;;;;;0.66;79.09;96984.53;102449;1270;4323453;-84
2022/02/03 10:17:53;;;;;;;7.10;2.60;;;;;;;0.70;79.55;96982.20;96568;1270;4328444;-83
2022/02/03 10:20:29;;;;;;;5.60;3.10;;;;;;;0.73;78.74;96976.29;102284;1270;3418846;-84
2022/02/03 10:23:10;;;;;;;7.10;2.80;;;;;;;0.70;78.88;96974.89;103915;1270;2606052;-83
2022/02/03 10:25:56;;;;;;;6.00;2.80;;;;;;;0.58;78.13;96978.12;102783;1270;5150085;-83
2022/02/03 10:28:34;;;;;;;4.00;2.10;;;;;;;0.45;77.87;96968.63;106808;1270;183960;-83
2022/02/03 10:31:24;;;;;;;4.10;2.50;;;;;;;0.64;77.68;96968.89;102604;1270;4241640;-83
2022/02/03 10:34:09;;;;;;;8.80;3.20;;;;;;;0.78;77.72;96966.02;92371;1270;5471974;-84
2022/02/03 10:36:54;;;;;;;5.70;2.90;;;;;;;1.23;78.14;96961.14;100393;1270;2097183;-84
2022/02/03 10:58:39;;;;;;;9.30;3.80;;;;;;;1.73;75.13;96939.77;91277;1270;5514962;-85
2022/02/03 11:07:26;;;;;;;6.30;3.10;;;;;;;1.63;74.41;96949.66;89924;1271;5531538;-84
2022/02/03 11:10:14;;;;;;;8.30;3.60;;;;;;;1.51;74.34;96956.70;103361;1270;2944409;-84
2022/02/03 11:12:59;;;;;;;5.80;2.20;;;;;;;1.35;73.81;96950.63;102499;1270;1830828;-85
2022/02/03 11:15:41;;;;;;;5.20;2.80;;;;;;;1.08;73.38;96941.59;95021;1270;7150104;-82
2022/02/03 11:18:35;;;;;;;5.70;2.80;;;;;;;0.98;73.90;96945.73;93643;1270;5250921;-84
2022/02/03 11:21:08;;;;;;;7.60;3.40;;;;;;;0.98;74.34;96935.22;91283;1270;5515200;-83
2022/02/03 11:23:53;;;;;;;7.10;3.60;;;;;;;1.01;74.77;96937.14;90149;1270;6733413;-84
2022/02/03 11:26:42;;;;;;;6.80;3.20;;;;;;;1.07;75.13;96939.03;91655;1270;8496003;-85
2022/02/03 11:32:41;;;;;;;8.10;3.60;;;;;;;1.03;74.88;96934.14;90841;1270;7525030;-86
2022/02/03 11:45:25;;;;;;;5.80;2.30;;;;;;;0.99;74.74;96933.81;76312;1270;6802285;-85
2022/02/03 11:54:23;;;;;;;;;;;;;;;0.85;74.01;96917.50;105410;1268;2026010;-85
2022/02/03 12:00:35;;;;;;;7.10;3.50;;;;;;;0.91;73.93;96905.66;104616;1270;1983471;-85
2022/02/03 12:03:28;;;;;;;6.80;2.90;;;;;;;0.84;73.88;96902.83;102474;1270;2064563;-85
2022/02/03 12:06:57;;;;;;;4.40;2.90;;;;;;;0.75;73.75;96898.52;102545;1270;4086216;-84
2022/02/03 12:13:18;;;;;;;7.50;3.20;;;;;;;0.94;74.03;96919.38;98866;1272;5174013;-85
2022/02/03 12:22:09;;;;;;;9.50;3.70;;;;;;;1.09;73.08;96918.16;106533;1270;2118220;-86
2022/02/03 12:25:05;;;;;;;5.70;3.10;;;;;;;1.18;73.57;96916.87;103436;1270;2682116;-85
2022/02/03 12:27:57;;;;;;;8.80;3.10;;;;;;;1.35;73.79;96909.36;104649;1270;1792722;-86
2022/02/03 12:30:37;;;;;;;7.30;2.90;;;;;;;1.42;72.96;96908.83;107423;1270;153419;-86
2022/02/03 12:39:04;;;;;;;6.50;3.40;;;;;;;1.51;72.11;96910.23;105783;1268;1514836;-86
2022/02/03 12:41:38;;;;;;;7.10;3.30;;;;;;;1.48;72.24;96915.94;105296;1270;2130410;-86
2022/02/03 12:44:19;;;;;;;8.10;2.40;;;;;;;1.55;72.45;96918.42;106905;1269;225836;-85
2022/02/03 12:46:50;;;;;;;5.50;2.90;;;;;;;1.45;71.86;96915.33;106963;1268;219089;-86
2022/02/03 12:49:25;;;;;;;5.50;3.20;;;;;;;1.39;72.07;96911.24;105971;1270;1683283;-85
2022/02/03 12:51:58;;;;;;;6.90;3.40;;;;;;;1.37;72.30;96915.00;106406;1269;1359899;-85
2022/02/03 12:54:34;;;;;;;7.00;3.40;;;;;;;1.42;72.56;96912.52;105608;1270;2334684;-85
2022/02/03 12:57:06;;;;;;;6.60;3.10;;;;;;;1.36;72.36;96904.05;103723;1270;2015790;-85
2022/02/03 12:59:37;;;;;;;9.40;4.10;;;;;;;1.34;72.26;96900.33;104237;1270;2065666;-85
2022/02/03 13:02:15;;;;;;;7.90;3.70;;;;;;;1.37;72.31;96900.73;106956;1269;227524;-85
2022/02/03 13:04:47;;;;;;;5.10;2.90;;;;;;;1.38;72.08;96899.11;107116;1270;141400;-85
2022/02/03 13:07:20;;;;;;;5.80;3.00;;;;;;;1.33;71.87;96898.20;103125;1270;2205834;-85
2022/02/03 13:10:03;;;;;;;8.40;3.30;;;;;;;1.32;72.09;96898.17;106361;1270;1168063;-85
2022/02/03 13:12:38;;;;;;;5.10;2.30;;;;;;;1.33;71.99;96893.73;107081;1269;163616;-85
2022/02/03 13:15:10;;;;;;;6.50;2.90;;;;;;;1.27;71.57;96895.67;105792;1270;1794616;-85
2022/02/03 13:17:57;;;;;;;8.80;3.30;;;;;;;1.22;71.54;96894.86;105572;1270;2058059;-86
2022/02/03 13:20:42;;;;;;;6.30;3.10;;;;;;;1.20;72.31;96895.77;107211;1270;136439;-85
2022/02/03 13:23:19;;;;;;;6.90;3.30;;;;;;;1.12;72.31;96896.54;106026;1270;1502680;-86
2022/02/03 13:26:11;;;;;;;5.90;3.60;;;;;;;1.08;73.23;96896.31;106214;1270;1298781;-85
2022/02/03 13:29:02;;;;;;;7.00;3.70;;;;;;;1.07;73.32;96899.34;107255;1270;121129;-85
2022/02/03 13:31:47;;;;;;;7.80;2.80;;;;;;;1.04;73.44;96895.23;106163;1270;1621348;-84
2022/02/03 13:34:33;;;;;;;3.50;2.20;;;;;;;1.05;73.57;96883.21;104154;1270;4072232;-85
2022/02/03 13:37:18;;;;;;;4.70;2.20;;;;;;;1.21;73.40;96878.88;107106;1268;263874;-84
2022/02/03 13:40:02;;;;;;;5.30;2.80;;;;;;;1.53;73.05;96867.50;105725;1270;1830146;-85
2022/02/03 13:42:34;;;;;;;6.70;3.70;;;;;;;1.76;72.35;96857.33;104475;1270;2268367;-85
2022/02/03 13:45:11;;;;;;;6.40;3.50;;;;;;;1.87;71.68;96856.05;106144;1270;1501478;-85
2022/02/03 13:47:46;;;;;;;7.90;4.10;;;;;;;1.88;71.28;96847.39;106058;1270;1669670;-85
2022/02/03 13:50:23;;;;;;;9.40;3.80;;;;;;;1.83;70.80;96841.98;107223;1270;172290;-85
2022/02/03 13:53:21;;;;;;;5.30;2.90;;;;;;;1.81;70.54;96829.80;104444;1270;2252214;-85
2022/02/03 14:10:41;;;;;;;7.80;3.90;;;;;;;0.94;71.08;96841.99;107309;1270;124647;-85
2022/02/03 14:20:04;;;;;;;9.20;4.50;;;;;;;0.60;72.83;96855.13;107065;1270;184902;-85
2022/02/03 14:28:10;;;;;;;9.10;4.80;;;;;;;0.69;73.73;96846.89;107106;1268;215234;-85
2022/02/03 14:30:45;;;;;;;12.20;4.90;;;;;;;0.70;73.85;96850.61;107151;1270;159167;-84
2022/02/03 14:33:24;;;;;;;9.20;4.10;;;;;;;0.82;74.00;96840.74;107338;1270;289233;-85
2022/02/03 14:36:05;;;;;;;9.70;4.90;;;;;;;0.86;74.00;96838.84;106968;1270;226057;-84
2022/02/03 14:38:47;;;;;;;10.40;5.30;;;;;;;0.84;74.39;96848.00;105992;1268;2049099;-84
2022/02/03 14:41:24;;;;;;;7.30;4.40;;;;;;;0.81;74.19;96848.05;105681;1268;1897611;-85
2022/02/03 14:44:00;;;;;;;10.10;4.30;;;;;;;0.86;74.43;96849.60;105715;1268;2138834;-85
2022/02/03 14:46:33;;;;;;;12.30;4.60;;;;;;;0.99;74.34;96850.32;107334;1270;181912;-85
2022/02/03 14:49:06;;;;;;;11.20;4.50;;;;;;;0.97;74.13;96850.52;105994;1270;1774202;-85
2022/02/03 14:51:48;;;;;;;8.30;4.70;;;;;;;0.90;73.99;96844.45;106152;1268;1591530;-84
2022/02/03 14:59:58;;;;;;;13.60;5.50;;;;;;;0.47;74.44;96838.10;105908;1270;2204908;-85
2022/02/03 15:02:35;;;;;;;12.80;5.20;;;;;;;0.39;74.82;96842.38;105833;1270;2137481;-85
2022/02/03 15:05:10;;;;;;;11.80;5.80;;;;;;;0.32;75.46;96842.91;104418;1270;3638865;-85
2022/02/03 15:07:43;;;;;;;11.60;5.70;;;;;;;0.26;75.62;96843.96;105544;1270;2135529;-85
2022/02/03 15:13:10;;;;;;;11.80;5.20;;;;;;;0.18;75.81;96835.06;105508;1270;1977983;-83
2022/02/03 15:15:42;;;;;;;12.90;5.20;;;;;;;0.13;76.09;96830.59;103602;1270;2567314;-85
2022/02/03 15:18:17;;;;;;;9.40;4.80;;;;;;;0.10;76.37;96833.60;103848;1270;2602630;-85
2022/02/03 15:20:51;;;;;;;12.60;6.40;;;;;;;0.05;76.31;96829.82;107108;1270;129086;-84
2022/02/03 15:23:24;;;;;;;10.90;5.30;;;;;;;0.02;76.57;96828.75;104543;1268;2020348;-85
2022/02/03 15:26:02;;;;;;;10.40;5.10;;;;;;;-0.04;76.84;96826.66;104846;1268;1799817;-85
2022/02/03 15:28:34;;;;;;;10.10;5.60;;;;;;;-0.10;77.06;96823.25;106964;1268;161461;-84
2022/02/03 15:31:06;;;;;;;11.10;6.10;;;;;;;-0.16;77.16;96820.89;104400;1270;1984847;-84
2022/02/03 15:33:44;;;;;;;10.60;5.10;;;;;;;-0.23;77.10;96816.39;104287;1270;2049619;-84
2022/02/03 15:36:18;;;;;;;14.40;7.10;;;;;;;-0.27;77.61;96817.70;107090;1268;161304;-84
2022/02/03 15:38:57;;;;;;;8.90;4.70;;;;;;;-0.30;77.62;96818.77;107106;1268;132386;-85
2022/02/03 15:41:34;;;;;;;11.30;5.60;;;;;;;-0.36;77.75;96818.59;105903;1270;2032067;-85
2022/02/03 15:44:19;;;;;;;8.80;5.20;;;;;;;-0.37;77.83;96820.11;105236;1268;2384943;-84
2022/02/03 15:47:01;;;;;;;10.60;5.60;;;;;;;-0.44;77.91;96813.88;106984;1270;165782;-85
2022/02/03 15:50:00;;;;;;;13.80;5.70;;;;;;;-0.49;78.23;96818.80;107115;1270;166905;-81
2022/02/03 16:04:10;;;;;;;16.70;7.90;;;;;;;-0.50;79.14;96821.46;105654;1269;2134829;-84
2022/02/03 16:18:11;;;;;;;14.30;7.30;;;;;;;-0.53;79.73;96815.02;107098;1270;115453;-85
2022/02/03 16:20:52;;;;;;;18.30;9.00;;;;;;;-0.57;79.43;96817.58;105765;1270;1703272;-84
2022/02/03 16:23:53;;;;;;;17.10;8.40;;;;;;;-0.64;79.72;96820.88;105882;1270;1385764;-85
2022/02/03 16:26:44;;;;;;;14.80;7.60;;;;;;;-0.68;79.58;96824.05;105432;1270;2223635;-85
2022/02/03 16:50:20;;;;;;;13.20;6.30;;;;;;;-0.94;80.35;96817.41;106393;1270;1252573;-85
2022/02/03 16:55:14;;;;;;;12.70;5.20;;;;;;;-1.04;80.45;96811.03;105514;1270;1829416;-85
2022/02/03 16:57:47;;;;;;;13.60;7.30;;;;;;;-1.01;80.47;96813.30;105750;1269;1592007;-85
2022/02/03 17:00:23;;;;;;;14.20;7.60;;;;;;;-1.03;80.30;96811.98;105506;1270;2077988;-84
2022/02/03 17:02:56;;;;;;;13.80;7.40;;;;;;;-1.04;80.26;96811.03;106125;1270;1504630;-84
2022/02/03 17:05:34;;;;;;;14.30;8.00;;;;;;;-1.03;80.25;96807.99;105598;1270;2303387;-84
2022/02/03 17:08:08;;;;;;;13.90;6.30;;;;;;;-1.00;80.17;96811.70;105692;1269;1809773;-84
2022/02/03 17:10:42;;;;;;;14.70;6.40;;;;;;;-1.00;80.34;96808.98;105722;1270;2062462;-83
2022/02/03 17:13:21;;;;;;;11.90;5.80;;;;;;;-0.97;80.22;96808.92;106906;1270;179780;-84
2022/02/03 17:15:55;;;;;;;12.40;7.00;;;;;;;-0.99;79.98;96806.95;104455;1270;2067981;-84
2022/02/03 17:18:27;;;;;;;10.40;5.00;;;;;;;-1.01;80.29;96803.90;102854;1270;3359167;-85
2022/02/03 17:21:02;;;;;;;11.70;6.20;;;;;;;-1.01;80.03;96796.25;105875;1268;2057220;-84
2022/02/03 17:23:33;;;;;;;13.10;7.40;;;;;;;-1.01;80.07;96793.53;107024;1270;192268;-80
2022/02/03 17:26:14;;;;;;;17.30;5.40;;;;;;;-1.01;79.98;96803.27;105200;1270;2597406;-84
2022/02/03 17:28:51;;;;;;;10.10;5.40;;;;;;;-1.01;80.04;96803.70;99937;1270;5287067;-84
2022/02/03 17:31:29;;;;;;;12.70;7.20;;;;;;;-1.01;80.03;96809.51;103888;1270;2348002;-84
2022/02/03 18:11:36;;;;;;;19.40;10.40;;;;;;;-1.25;80.28;96772.22;104434;1270;2085981;-84
2022/02/03 18:17:27;;;;;;;18.00;7.80;;;;;;;-1.32;80.10;96764.27;105876;1270;1924756;-80
2022/02/03 18:26:01;;;;;;;17.10;8.40;;;;;;;-1.28;79.95;96759.17;102676;1270;2522973;-83
2022/02/03 18:31:55;;;;;;;30.60;13.30;;;;;;;-1.33;80.24;96754.95;107024;1270;166946;-85
2022/02/03 18:35:03;;;;;;;14.00;6.50;;;;;;;-1.34;80.19;96760.04;102111;1270;2803158;-84
2022/02/03 18:45:49;;;;;;;17.70;8.00;;;;;;;-1.36;80.10;96755.88;105835;1270;1910565;-84
2022/02/03 18:49:52;;;;;;;17.00;7.60;;;;;;;-1.23;79.76;96750.45;104486;1271;1914180;-84
2022/02/03 18:52:28;;;;;;;12.70;8.60;;;;;;;-1.27;79.83;96747.00;105738;1270;1808678;-84
2022/02/03 18:55:14;;;;;;;14.40;8.00;;;;;;;-1.34;79.66;96740.79;107407;1270;132006;-84
2022/02/03 18:58:08;;;;;;;23.00;9.50;;;;;;;-1.39;79.81;96734.67;101925;1268;5409291;-84
2022/02/03 19:01:06;;;;;;;16.60;8.40;;;;;;;-1.42;79.92;96739.41;107273;1268;119449;-84
2022/02/03 19:09:54;;;;;;;13.30;7.40;;;;;;;-1.45;80.21;96731.82;103307;1270;2001897;-83
2022/02/03 19:15:49;;;;;;;17.00;8.80;;;;;;;-1.46;80.15;96731.42;105672;1270;2091444;-84
2022/02/03 19:22:11;;;;;;;19.30;8.60;;;;;;;-1.41;80.14;96727.06;106037;1270;1546824;-84
2022/02/03 19:24:49;;;;;;;16.00;8.10;;;;;;;-1.37;80.32;96718.84;107222;1270;134068;-84
2022/02/03 19:27:46;;;;;;;18.90;7.10;;;;;;;-1.36;80.19;96704.08;105930;1269;1837708;-84
2022/02/03 19:56:45;;;;;;;13.50;5.80;;;;;;;-1.15;79.64;96665.92;105008;1270;1802174;-84
2022/02/03 20:05:15;;;;;;;10.50;5.00;;;;;;;-1.07;79.49;96669.55;106442;1270;1314057;-84
2022/02/03 20:07:55;;;;;;;12.30;5.10;;;;;;;-1.01;79.56;96666.04;107140;1270;133495;-84
2022/02/03 20:10:31;;;;;;;12.50;5.30;;;;;;;-0.97;79.35;96659.55;106204;1270;1504359;-84
2022/02/03 20:13:03;;;;;;;10.40;5.60;;;;;;;-0.89;79.21;96650.05;104357;1270;2333698;-84
2022/02/03 20:15:37;;;;;;;8.10;3.30;;;;;;;-0.85;79.27;96654.80;107088;1270;170383;-81
2022/02/03 20:18:12;;;;;;;11.00;4.40;;;;;;;-0.83;79.31;96647.80;106283;1270;1269330;-84
2022/02/03 20:20:45;;;;;;;11.90;4.40;;;;;;;-0.81;79.09;96648.03;104622;1270;1993333;-83
2022/02/03 20:23:20;;;;;;;9.70;5.00;;;;;;;-0.77;79.23;96647.17;107283;1270;98619;-84
2022/02/03 20:25:57;;;;;;;12.30;5.70;;;;;;;-0.76;78.98;96641.00;102354;1270;2321036;-84
2022/02/03 20:28:32;;;;;;;11.40;4.40;;;;;;;-0.77;78.87;96633.71;105982;1270;1847827;-84
2022/02/03 20:31:06;;;;;;;11.70;6.50;;;;;;;-0.78;79.01;96630.00;107359;1270;196932;-84
2022/02/03 20:33:38;;;;;;;11.50;6.00;;;;;;;-0.79;79.07;96625.77;105710;1270;2056582;-84
2022/02/03 20:36:12;;;;;;;11.90;5.70;;;;;;;-0.79;78.90;96625.92;107216;1270;125981;-83
2022/02/03 20:38:44;;;;;;;9.90;5.20;;;;;;;-0.76;78.95;96631.44;105112;1270;1283720;-84
2022/02/03 20:41:16;;;;;;;10.50;5.10;;;;;;;-0.69;78.86;96622.01;107008;1271;232336;-84
2022/02/03 20:43:49;;;;;;;8.00;4.10;;;;;;;-0.63;78.43;96618.73;105665;1270;2003765;-84
2022/02/03 20:46:22;;;;;;;9.40;4.50;;;;;;;-0.47;77.83;96617.05;107174;1270;160475;-84
2022/02/03 20:48:58;;;;;;;12.90;5.00;;;;;;;-0.35;77.19;96617.83;106041;1270;1765033;-84
2022/02/03 20:51:31;;;;;;;13.60;4.50;;;;;;;-0.29;76.73;96618.95;102229;1270;4331906;-84
2022/02/03 20:54:05;;;;;;;10.10;4.40;;;;;;;-0.27;76.58;96612.87;106090;1270;1915065;-84